createdAt,value
2019-04-06T00:02:55.572Z,16.14
2019-04-06T00:08:01.303Z,15.92
2019-04-06T00:13:06.971Z,15.95
2019-04-06T00:18:13.659Z,15.98
2019-04-06T00:23:20.101Z,15.70
2019-04-06T00:28:26.031Z,15.71
2019-04-06T00:33:33.096Z,15.80
2019-04-06T00:38:39.080Z,15.79
2019-04-06T00:43:45.033Z,15.43
2019-04-06T00:48:51.596Z,14.93
2019-04-06T00:53:58.103Z,15.53
2019-04-06T00:59:03.999Z,15.62
2019-04-06T01:04:10.299Z,15.56
2019-04-06T01:09:16.076Z,15.63
2019-04-06T01:14:22.237Z,15.82
2019-04-06T01:19:28.023Z,16.01
2019-04-06T01:24:33.837Z,16.15
2019-04-06T01:29:39.993Z,16.32
2019-04-06T01:34:46.577Z,16.34
2019-04-06T01:39:52.317Z,16.48
2019-04-06T01:44:58.235Z,16.60
2019-04-06T01:50:04.383Z,16.67
2019-04-06T01:55:10.095Z,16.73
2019-04-06T02:00:16.455Z,16.71
2019-04-06T02:05:23.372Z,16.70
2019-04-06T02:10:29.134Z,16.77
2019-04-06T02:15:34.935Z,16.67
2019-04-06T02:20:40.738Z,16.61
2019-04-06T02:25:46.630Z,16.58
2019-04-06T02:30:57.590Z,16.52
2019-04-06T02:36:21.190Z,16.46
2019-04-06T02:41:38.004Z,16.40
2019-04-06T02:46:44.323Z,16.28
2019-04-06T02:51:50.631Z,16.22
2019-04-06T02:56:56.338Z,16.09
2019-04-06T03:02:01.909Z,15.93
2019-04-06T03:07:07.838Z,16.00
2019-04-06T03:12:15.370Z,15.93
2019-04-06T03:17:21.118Z,16.13
2019-04-06T03:22:27.286Z,16.11
2019-04-06T03:27:34.245Z,16.03
2019-04-06T03:32:40.430Z,15.99
2019-04-06T03:37:46.826Z,15.91
2019-04-06T03:42:53.127Z,15.94
2019-04-06T03:47:59.687Z,15.91
2019-04-06T03:53:05.316Z,15.86
2019-04-06T03:58:11.224Z,15.89
2019-04-06T04:03:16.796Z,15.91
2019-04-06T04:08:22.433Z,15.54
2019-04-06T04:13:28.146Z,15.61
2019-04-06T04:18:33.799Z,15.43
2019-04-06T04:23:39.683Z,15.45
2019-04-06T04:28:47.169Z,15.50
2019-04-06T04:33:52.721Z,15.61
2019-04-06T04:38:58.364Z,15.63
2019-04-06T04:44:04.419Z,15.74
2019-04-06T04:49:10.015Z,15.77
2019-04-06T04:54:15.651Z,16.02
2019-04-06T04:59:21.745Z,16.23
2019-04-06T05:04:27.691Z,16.03
2019-04-06T05:09:33.474Z,15.75
2019-04-06T05:15:04.050Z,15.68
2019-04-06T05:20:10.254Z,15.96
2019-04-06T05:25:15.983Z,15.81
2019-04-06T05:30:21.555Z,16.04
2019-04-06T05:35:27.426Z,16.25
2019-04-06T05:40:35.045Z,16.33
2019-04-06T05:45:40.649Z,16.58
2019-04-06T05:50:46.287Z,16.67
2019-04-06T05:55:52.433Z,16.53
2019-04-06T06:00:58.077Z,16.54
2019-04-06T06:06:05.049Z,16.71
2019-04-06T06:11:11.091Z,16.62
2019-04-06T06:16:17.124Z,16.92
2019-04-06T06:21:22.729Z,16.93
2019-04-06T06:26:28.295Z,17.12
2019-04-06T06:31:34.161Z,17.37
2019-04-06T06:36:39.826Z,17.31
2019-04-06T06:41:45.744Z,17.16
2019-04-06T06:46:53.365Z,17.14
2019-04-06T06:51:59.240Z,17.21
2019-04-06T06:57:04.975Z,17.11
2019-04-06T07:02:11.454Z,17.33
2019-04-06T07:07:17.407Z,17.45
2019-04-06T07:12:23.066Z,17.63
2019-04-06T07:17:29.285Z,18.07
2019-04-06T07:22:35.420Z,17.84
2019-04-06T07:27:42.241Z,18.21
2019-04-06T07:32:48.098Z,18.67
2019-04-06T07:37:55.329Z,18.66
2019-04-06T07:43:01.277Z,18.86
2019-04-06T07:48:07.000Z,18.96
2019-04-06T07:53:13.227Z,19.11
2019-04-06T07:58:18.968Z,19.05
2019-04-06T08:03:24.570Z,19.33
2019-04-06T08:08:30.287Z,19.61
2019-04-06T08:13:36.418Z,19.85
2019-04-06T08:18:42.279Z,20.01
2019-04-06T08:23:48.990Z,20.21
2019-04-06T08:29:01.929Z,20.52
2019-04-06T08:34:02.911Z,20.72
2019-04-06T08:39:10.407Z,20.99
2019-04-06T08:44:16.778Z,21.30
2019-04-06T08:49:23.424Z,21.29
2019-04-06T08:54:29.602Z,21.26
2019-04-06T08:59:35.811Z,21.56
2019-04-06T09:04:42.581Z,22.05
2019-04-06T09:09:48.324Z,22.44
2019-04-06T09:14:54.447Z,22.41
2019-04-06T09:20:00.241Z,22.66
2019-04-06T09:25:07.851Z,22.82
2019-04-06T09:30:16.006Z,23.24
2019-04-06T09:35:21.684Z,23.38
2019-04-06T09:40:28.398Z,23.85
2019-04-06T09:45:55.086Z,24.23
2019-04-06T09:51:19.271Z,24.02
2019-04-06T09:56:32.606Z,24.14
2019-04-06T10:01:57.584Z,24.61
2019-04-06T10:07:18.057Z,25.04
2019-04-06T10:12:25.640Z,25.59
2019-04-06T10:17:42.610Z,25.65
2019-04-06T10:22:59.639Z,25.92
2019-04-06T10:28:13.105Z,26.51
2019-04-06T10:33:23.456Z,26.64
2019-04-06T10:38:36.447Z,26.38
2019-04-06T10:43:43.921Z,26.54
2019-04-06T10:49:08.002Z,26.76
2019-04-06T10:54:26.584Z,26.77
2019-04-06T10:59:39.878Z,27.02
2019-04-06T11:04:53.353Z,27.20
2019-04-06T11:10:17.715Z,27.59
2019-04-06T11:15:37.710Z,27.72
2019-04-06T11:20:47.963Z,28.01
2019-04-06T11:25:56.055Z,28.65
2019-04-06T11:31:13.244Z,28.64
2019-04-06T11:36:29.072Z,28.97
2019-04-06T11:41:54.717Z,29.22
2019-04-06T11:47:21.953Z,29.22
2019-04-06T11:52:29.467Z,29.40
2019-04-06T11:57:41.123Z,29.83
2019-04-06T12:02:48.960Z,29.95
2019-04-06T12:08:09.674Z,30.08
2019-04-06T12:13:18.249Z,30.01
2019-04-06T12:18:25.999Z,30.19
2019-04-06T12:23:34.877Z,30.28
2019-04-06T12:28:51.931Z,30.11
2019-04-06T12:34:14.043Z,29.91
2019-04-06T12:39:34.021Z,30.81
2019-04-06T12:44:45.731Z,31.37
2019-04-06T12:50:12.369Z,31.37
2019-04-06T12:55:20.657Z,31.37
2019-04-06T13:00:28.714Z,31.10
2019-04-06T13:05:36.624Z,31.52
2019-04-06T13:10:48.673Z,31.69
2019-04-06T13:15:57.170Z,32.07
2019-04-06T13:21:21.131Z,31.95
2019-04-06T13:26:32.370Z,31.98
2019-04-06T13:31:51.010Z,31.74
2019-04-06T13:37:03.707Z,32.06
2019-04-06T13:42:16.336Z,31.91
2019-04-06T13:47:24.784Z,32.35
2019-04-06T13:52:49.570Z,31.43
2019-04-06T13:58:01.703Z,31.89
2019-04-06T14:03:12.019Z,31.12
2019-04-06T14:08:32.291Z,31.81
2019-04-06T14:13:49.407Z,31.87
2019-04-06T14:19:12.676Z,32.51
2019-04-06T14:24:31.624Z,33.19
2019-04-06T14:29:42.098Z,33.30
2019-04-06T14:35:05.080Z,33.16
2019-04-06T14:40:30.377Z,32.63
2019-04-06T14:45:43.360Z,32.51
2019-04-06T14:51:10.024Z,33.02
2019-04-06T14:56:23.413Z,33.44
2019-04-06T15:01:57.138Z,33.53
2019-04-06T15:07:11.540Z,33.78
2019-04-06T15:12:20.184Z,33.64
2019-04-06T15:17:30.190Z,33.21
2019-04-06T15:22:49.987Z,32.76
2019-04-06T15:28:09.627Z,33.17
2019-04-06T15:33:33.739Z,33.80
2019-04-06T15:38:56.461Z,33.81
2019-04-06T15:44:12.337Z,34.08
2019-04-06T15:49:39.638Z,34.12
2019-04-06T15:54:52.441Z,34.13
2019-04-06T16:00:19.336Z,34.05
2019-04-06T16:05:41.253Z,35.07
2019-04-06T16:10:50.283Z,34.60
2019-04-06T16:16:04.109Z,35.34
2019-04-06T16:21:29.350Z,35.14
2019-04-06T16:26:47.486Z,35.01
2019-04-06T16:32:10.132Z,36.08
2019-04-06T16:37:17.909Z,36.36
2019-04-06T16:42:34.130Z,35.63
2019-04-06T16:47:49.019Z,35.36
2019-04-06T16:52:57.899Z,33.89
2019-04-06T16:58:23.164Z,34.01
2019-04-06T17:03:50.032Z,34.17
2019-04-06T17:09:01.863Z,33.10
2019-04-06T17:14:16.275Z,32.81
2019-04-06T17:19:34.143Z,32.43
2019-04-06T17:24:42.505Z,31.40
2019-04-06T17:29:54.537Z,30.87
2019-04-06T17:35:07.598Z,30.12
2019-04-06T17:40:24.623Z,28.92
2019-04-06T17:45:39.000Z,28.19
2019-04-06T17:50:49.805Z,27.33
2019-04-06T17:56:20.105Z,26.23
2019-04-06T18:01:34.608Z,25.82
2019-04-06T18:06:52.238Z,25.58
2019-04-06T18:12:06.620Z,25.49
2019-04-06T18:17:12.946Z,25.19
2019-04-06T18:22:20.249Z,25.05
2019-04-06T18:27:27.463Z,24.81
2019-04-06T18:32:37.482Z,24.67
2019-04-06T18:37:48.403Z,24.50
2019-04-06T18:42:56.228Z,23.76
2019-04-06T18:48:03.408Z,23.39
2019-04-06T18:53:10.629Z,23.34
2019-04-06T18:58:17.166Z,23.20
2019-04-06T19:03:23.307Z,22.82
2019-04-06T19:08:30.870Z,22.53
2019-04-06T19:13:39.105Z,22.29
2019-04-06T19:18:45.667Z,22.50
2019-04-06T19:23:53.878Z,22.23
2019-04-06T19:29:03.770Z,22.06
2019-04-06T19:34:09.509Z,22.09
2019-04-06T19:39:17.040Z,21.68
2019-04-06T19:44:24.908Z,21.85
2019-04-06T19:49:33.968Z,21.57
2019-04-06T19:54:41.593Z,21.35
2019-04-06T19:59:50.353Z,21.25
2019-04-06T20:04:57.027Z,21.28
2019-04-06T20:10:07.180Z,21.24
2019-04-06T20:15:15.456Z,21.37
2019-04-06T20:20:22.555Z,21.10
2019-04-06T20:25:29.585Z,21.15
2019-04-06T20:30:38.615Z,20.95
2019-04-06T20:35:45.738Z,20.97
2019-04-06T20:40:52.765Z,20.70
2019-04-06T20:45:59.644Z,20.50
2019-04-06T20:51:06.277Z,20.63
2019-04-06T20:56:14.566Z,20.18
2019-04-06T21:01:21.189Z,20.20
2019-04-06T21:06:29.133Z,20.19
2019-04-06T21:11:35.790Z,20.18
2019-04-06T21:16:44.553Z,19.97
2019-04-06T21:21:51.972Z,19.97
2019-04-06T21:26:58.611Z,19.78
2019-04-06T21:32:06.348Z,20.05
2019-04-06T21:37:13.405Z,19.85
2019-04-06T21:42:20.028Z,19.44
2019-04-06T21:47:26.235Z,19.53
2019-04-06T21:52:33.245Z,19.47
2019-04-06T21:57:41.902Z,19.39
2019-04-06T22:02:50.157Z,19.79
2019-04-06T22:07:57.283Z,19.45
2019-04-06T22:13:04.190Z,19.27
2019-04-06T22:18:11.538Z,19.32
2019-04-06T22:23:17.577Z,19.40
2019-04-06T22:28:24.463Z,19.13
2019-04-06T22:33:30.690Z,18.76
2019-04-06T22:38:36.583Z,18.73
2019-04-06T22:43:43.754Z,18.63
2019-04-06T22:48:49.966Z,18.65
2019-04-06T22:53:56.117Z,18.44
2019-04-06T22:59:03.223Z,18.57
2019-04-06T23:04:13.413Z,18.59
2019-04-06T23:09:20.123Z,18.25
2019-04-06T23:14:27.195Z,18.41
2019-04-06T23:19:32.962Z,18.60
2019-04-06T23:24:38.663Z,18.72
2019-04-06T23:29:44.601Z,18.73
2019-04-06T23:34:59.430Z,18.52
2019-04-06T23:39:58.433Z,18.84
2019-04-06T23:45:07.011Z,18.72
2019-04-06T23:50:13.578Z,18.78
2019-04-06T23:55:21.275Z,18.78
